Time;durP1;ratioP1;P1;durP2;ratioP2;P2;SDS_P1;SDS_P2;PMS_P1;PMS_P2;Temp;Humidity;BMP_temperature;BMP_pressure;BME280_temperature;BME280_humidity;BME280_pressure;Samples;Min_cycle;Max_cycle;Signal;HPM_P1;HPM_P2
2022/09/07 00:00:50;;;;;;;18.02;12.60;;;17.10;99.90;;;;;;5036144;28;20137;-22
2022/09/07 00:03:16;;;;;;;13.55;12.05;;;17.00;99.90;;;;;;5035496;28;20050;-22
2022/09/07 00:05:47;;;;;;;15.27;13.68;;;17.00;99.90;;;;;;5035820;28;20041;-22
2022/09/07 00:08:14;;;;;;;18.42;13.80;;;17.00;99.90;;;;;;5035513;28;20041;-22
2022/09/07 00:10:39;;;;;;;16.02;13.45;;;17.00;99.90;;;;;;5035440;28;20506;-22
2022/09/07 00:13:06;;;;;;;15.27;13.73;;;16.90;99.90;;;;;;5035364;28;20049;-22
2022/09/07 00:15:33;;;;;;;17.08;13.63;;;16.90;99.90;;;;;;5035289;28;20045;-22
2022/09/07 00:17:59;;;;;;;17.60;14.13;;;16.80;99.90;;;;;;5035312;28;20051;-22
2022/09/07 00:20:24;;;;;;;19.77;15.32;;;16.80;99.90;;;;;;5035252;28;20041;-21
2022/09/07 00:22:50;;;;;;;19.67;15.50;;;16.90;99.90;;;;;;5035104;28;20096;-21
2022/09/07 00:25:16;;;;;;;18.70;16.70;;;16.80;99.90;;;;;;5034173;28;20056;-21
2022/09/07 00:27:41;;;;;;;19.45;15.60;;;16.70;1.00;;;;;;5035070;28;20084;-21
2022/09/07 00:30:07;;;;;;;23.67;14.98;;;16.80;1.00;;;;;;5035353;28;20045;-21
2022/09/07 00:32:33;;;;;;;17.25;15.57;;;16.70;1.00;;;;;;5035800;28;20041;-21
2022/09/07 00:34:59;;;;;;;16.02;14.00;;;16.70;1.00;;;;;;5033990;28;20045;-21
2022/09/07 00:37:25;;;;;;;17.50;14.40;;;16.70;1.00;;;;;;5033749;28;20092;-21
2022/09/07 00:39:51;;;;;;;16.90;14.52;;;16.80;1.00;;;;;;5034442;28;20050;-21
2022/09/07 00:42:21;;;;;;;19.40;15.27;;;16.80;1.00;;;;;;5034188;28;20041;-21
2022/09/07 00:45:06;;;;;;;18.35;14.20;;;16.80;1.00;;;;;;5034607;28;20037;-21
2022/09/07 00:47:51;;;;;;;16.65;14.95;;;16.70;1.00;;;;;;5034602;28;20060;-21
2022/09/07 00:50:36;;;;;;;16.30;14.48;;;16.70;1.00;;;;;;5034703;28;20118;-21
2022/09/07 00:53:12;;;;;;;16.48;14.60;;;16.70;1.00;;;;;;5035494;28;20060;-22
2022/09/07 00:55:41;;;;;;;17.00;15.20;;;16.60;1.00;;;;;;5034493;28;20050;-21
2022/09/07 00:58:08;;;;;;;16.77;14.15;;;16.60;1.00;;;;;;5034501;28;20092;-21
2022/09/07 01:00:34;;;;;;;16.17;13.85;;;16.60;1.00;;;;;;5034484;28;20052;-21
2022/09/07 01:03:01;;;;;;;18.25;15.35;;;16.60;1.00;;;;;;5033350;28;20049;-20
2022/09/07 01:05:55;;;;;;;19.73;16.15;;;16.60;1.00;;;;;;5017511;28;20053;-21
2022/09/07 01:08:21;;;;;;;23.55;17.67;;;16.60;1.00;;;;;;5035173;28;20072;-21
2022/09/07 01:10:47;;;;;;;18.75;16.85;;;16.40;1.00;;;;;;5033198;28;20146;-21
2022/09/07 01:13:13;;;;;;;18.33;16.27;;;16.30;12.60;;;;;;5016842;28;20503;-20
2022/09/07 01:15:50;;;;;;;20.40;18.15;;;16.30;1.00;;;;;;5034179;28;20514;-21
2022/09/07 01:18:41;;;;;;;20.23;17.88;;;16.20;99.90;;;;;;5034234;28;20087;-20
2022/09/07 01:21:54;;;;;;;17.70;15.50;;;16.20;96.20;;;;;;5035008;28;20041;-20
2022/09/07 01:24:53;;;;;;;19.88;17.70;;;16.10;99.90;;;;;;5033989;28;20037;-20
2022/09/07 01:27:57;;;;;;;17.98;14.65;;;16.20;99.90;;;;;;5034038;28;20052;-20
2022/09/07 01:30:23;;;;;;;19.02;16.08;;;16.20;99.90;;;;;;5033999;28;20100;-20
2022/09/07 01:33:07;;;;;;;19.02;15.95;;;16.30;1.00;;;;;;5032988;28;20045;-20
2022/09/07 01:35:36;;;;;;;21.75;16.35;;;16.20;1.00;;;;;;5032849;28;20049;-21
2022/09/07 01:38:14;;;;;;;18.92;16.90;;;16.30;99.90;;;;;;5034884;28;20061;-21
2022/09/07 01:40:51;;;;;;;19.45;17.48;;;16.40;99.90;;;;;;5033906;28;20183;-20
2022/09/07 01:43:58;;;;;;;23.15;15.18;;;16.30;99.90;;;;;;5034140;28;20042;-21
2022/09/07 01:46:32;;;;;;;23.23;7.25;;;16.90;99.90;;;;;;5027683;28;20514;-25
2022/09/07 01:49:27;;;;;;;19.52;11.88;;;14.10;99.90;;;;;;5033711;28;20045;-29
2022/09/07 01:51:58;;;;;;;57.42;26.98;;;13.90;99.90;;;;;;5032450;28;20057;-28
2022/09/07 01:54:38;;;;;;;47.72;32.88;;;14.00;99.90;;;;;;5033710;28;20506;-29
2022/09/07 01:57:25;;;;;;;55.65;36.95;;;17.80;99.90;;;;;;5033729;28;20045;-31
2022/09/07 02:00:01;;;;;;;53.70;35.13;;;18.10;99.90;;;;;;5032427;28;20053;-28
2022/09/07 02:02:31;;;;;;;35.55;26.08;;;18.00;99.90;;;;;;5033542;28;20045;-29
2022/09/07 02:05:10;;;;;;;46.95;28.90;;;14.80;99.90;;;;;;5033497;28;20048;-29
2022/09/07 02:07:46;;;;;;;28.48;18.73;;;17.30;99.90;;;;;;5034190;28;20437;-29
2022/09/07 02:10:17;;;;;;;29.48;22.08;;;18.00;99.90;;;;;;5034415;28;20380;-29
2022/09/07 02:12:57;;;;;;;31.88;21.60;;;17.80;99.90;;;;;;5033546;28;20092;-30
2022/09/07 02:15:49;;;;;;;25.88;19.38;;;14.30;99.90;;;;;;5032571;28;20095;-30
2022/09/07 02:18:16;;;;;;;31.67;22.10;;;14.10;99.90;;;;;;5034127;28;20088;-28
2022/09/07 02:20:49;;;;;;;44.15;24.55;;;16.30;99.90;;;;;;5033451;28;20086;-30
2022/09/07 02:23:18;;;;;;;;;;;17.90;99.90;;;;;;5034076;28;20087;-30
2022/09/07 02:25:53;;;;;;;16.63;10.52;;;13.60;99.90;;;;;;5033403;28;20015;-28
2022/09/07 02:28:29;;;;;;;13.75;9.68;;;17.60;99.90;;;;;;5032454;28;20569;-28
2022/09/07 02:30:55;;;;;;;21.40;14.63;;;18.50;99.90;;;;;;5033864;28;20380;-27
2022/09/07 02:33:21;;;;;;;14.85;11.00;;;14.90;99.90;;;;;;5033349;28;20076;-28
2022/09/07 02:35:47;;;;;;;12.15;10.10;;;18.30;99.90;;;;;;5033315;28;20042;-29
2022/09/07 02:38:13;;;;;;;25.10;18.85;;;15.60;99.90;;;;;;5033878;28;20061;-28
2022/09/07 02:40:38;;;;;;;29.13;18.95;;;14.40;99.90;;;;;;5033268;28;20514;-28
2022/09/07 02:43:06;;;;;;;21.27;15.75;;;13.80;99.90;;;;;;5033101;28;20513;-28
2022/09/07 02:45:58;;;;;;;18.48;13.95;;;17.60;99.90;;;;;;5033203;28;20049;-29
2022/09/07 02:49:06;;;;;;;22.45;16.25;;;13.60;99.90;;;;;;5033780;28;20053;-29
2022/09/07 02:51:46;;;;;;;26.63;18.15;;;16.80;99.90;;;;;;5032914;28;20519;-28
2022/09/07 02:54:18;;;;;;;29.42;19.42;;;14.40;99.90;;;;;;5033731;28;20061;-27
2022/09/07 02:56:57;;;;;;;24.85;18.90;;;17.30;99.90;;;;;;5033073;28;20092;-29
2022/09/07 02:59:29;;;;;;;28.13;19.77;;;13.90;99.90;;;;;;5033438;28;20045;-28
2022/09/07 03:02:09;;;;;;;29.00;20.15;;;18.20;99.90;;;;;;5033037;28;20049;-28
2022/09/07 03:05:03;;;;;;;36.58;24.88;;;14.10;99.90;;;;;;5033545;28;20100;-28
2022/09/07 03:07:35;;;;;;;38.00;25.05;;;16.80;99.90;;;;;;5032948;28;20049;-28
2022/09/07 03:10:04;;;;;;;39.17;25.50;;;18.30;99.90;;;;;;5033374;28;20045;-28
2022/09/07 03:12:43;;;;;;;45.92;28.55;;;15.10;99.90;;;;;;5035894;28;20055;-29
2022/09/07 03:15:21;;;;;;;37.42;25.75;;;17.80;99.90;;;;;;5037113;28;20048;-29
2022/09/07 03:17:48;;;;;;;63.08;33.28;;;18.00;99.90;;;;;;5036759;28;20064;-29
2022/09/07 03:20:15;;;;;;;44.20;26.15;;;16.70;99.90;;;;;;5036367;28;20049;-29
2022/09/07 03:22:46;;;;;;;43.25;26.63;;;14.20;99.90;;;;;;5036393;28;20049;-29
2022/09/07 03:25:13;;;;;;;43.08;27.02;;;17.30;99.90;;;;;;5036256;28;20041;-30
2022/09/07 03:27:38;;;;;;;33.13;23.20;;;14.70;99.90;;;;;;5036232;28;20080;-30
2022/09/07 03:30:06;;;;;;;43.72;27.85;;;17.70;99.90;;;;;;5036238;28;20087;-30
2022/09/07 03:32:33;;;;;;;32.00;21.85;;;14.60;99.90;;;;;;5036148;28;20076;-31
2022/09/07 03:35:00;;;;;;;39.92;24.48;;;15.90;99.90;;;;;;5036148;28;20041;-30
2022/09/07 03:37:29;;;;;;;32.88;23.15;;;14.50;99.90;;;;;;5035823;28;20092;-30
2022/09/07 03:39:55;;;;;;;38.03;23.67;;;14.10;99.90;;;;;;5036022;28;20112;-30
2022/09/07 03:42:21;;;;;;;54.28;30.40;;;16.50;99.90;;;;;;5035291;28;20049;-30
2022/09/07 03:44:48;;;;;;;31.40;22.60;;;15.40;99.90;;;;;;5034642;28;20372;-30
2022/09/07 03:47:15;;;;;;;34.42;23.38;;;17.30;99.90;;;;;;5035899;28;20041;-30
2022/09/07 03:49:41;;;;;;;25.95;19.45;;;14.10;99.90;;;;;;5036366;28;20076;-30
2022/09/07 03:52:07;;;;;;;25.45;18.73;;;17.70;99.90;;;;;;5035827;28;20476;-30
2022/09/07 03:54:32;;;;;;;27.88;19.15;;;17.20;99.90;;;;;;5034853;28;20052;-32
2022/09/07 03:56:58;;;;;;;25.25;18.25;;;14.10;99.90;;;;;;5036296;28;20357;-31
2022/09/07 03:59:24;;;;;;;22.58;18.55;;;14.20;99.90;;;;;;5034483;28;20045;-31
2022/09/07 04:01:50;;;;;;;27.65;20.60;;;14.00;99.90;;;;;;5035624;28;20430;-31
2022/09/07 04:04:16;;;;;;;19.40;14.65;;;15.40;99.90;;;;;;5036072;28;20135;-31
2022/09/07 04:06:42;;;;;;;28.73;20.55;;;18.10;99.90;;;;;;5036337;28;20045;-30
2022/09/07 04:09:11;;;;;;;20.77;16.00;;;17.50;99.90;;;;;;5036334;28;20041;-31
2022/09/07 04:11:36;;;;;;;22.55;15.93;;;14.00;99.90;;;;;;5035439;28;20045;-32
2022/09/07 04:14:03;;;;;;;31.88;22.35;;;18.10;99.90;;;;;;5034128;28;20562;-31
2022/09/07 04:16:28;;;;;;;29.00;19.95;;;13.90;99.90;;;;;;5035357;28;20045;-30
2022/09/07 04:18:54;;;;;;;39.45;22.65;;;17.40;99.90;;;;;;5034125;28;20045;-31
2022/09/07 04:21:22;;;;;;;25.55;17.65;;;17.90;99.90;;;;;;5034074;28;20045;-31
2022/09/07 04:23:48;;;;;;;21.98;16.40;;;17.70;99.90;;;;;;5033511;28;20037;-31
2022/09/07 04:26:16;;;;;;;24.15;16.67;;;14.10;99.90;;;;;;5035692;28;20053;-31
2022/09/07 04:28:43;;;;;;;21.33;16.50;;;15.10;99.90;;;;;;5035653;28;20053;-31
2022/09/07 04:31:08;;;;;;;23.73;17.45;;;17.60;99.90;;;;;;5035098;28;20081;-31
2022/09/07 04:33:34;;;;;;;20.10;16.27;;;14.80;99.90;;;;;;5036070;28;20085;-30
2022/09/07 04:36:01;;;;;;;34.15;21.90;;;16.60;99.90;;;;;;5035009;28;20476;-30
2022/09/07 04:38:27;;;;;;;25.60;17.63;;;14.20;99.90;;;;;;5035512;28;20053;-30
2022/09/07 04:41:09;;;;;;;23.85;17.05;;;17.10;99.90;;;;;;5035111;28;20110;-31
2022/09/07 04:43:36;;;;;;;25.55;18.10;;;14.90;99.90;;;;;;5035042;28;20391;-31
2022/09/07 04:46:07;;;;;;;29.45;18.33;;;16.20;99.90;;;;;;5034749;28;20053;-32
2022/09/07 04:48:33;;;;;;;26.13;18.45;;;14.00;99.90;;;;;;5034758;28;20053;-31
2022/09/07 04:51:07;;;;;;;31.00;22.73;;;16.20;99.90;;;;;;5034672;28;20042;-31
2022/09/07 04:53:34;;;;;;;30.38;21.60;;;17.50;99.90;;;;;;5034295;28;20503;-31
2022/09/07 04:56:00;;;;;;;27.50;19.52;;;17.30;99.90;;;;;;5034598;28;20045;-31
2022/09/07 04:58:26;;;;;;;27.60;19.80;;;17.30;99.90;;;;;;5033372;28;20518;-31
2022/09/07 05:00:52;;;;;;;24.75;18.77;;;13.40;99.90;;;;;;5033550;28;20092;-31
2022/09/07 05:03:17;;;;;;;25.52;18.67;;;14.00;99.90;;;;;;5017029;28;20154;-31
2022/09/07 05:05:43;;;;;;;26.70;18.35;;;13.80;99.90;;;;;;5035012;28;20074;-31
2022/09/07 05:08:10;;;;;;;27.17;19.27;;;14.20;99.90;;;;;;5033953;28;20419;-31
2022/09/07 05:10:36;;;;;;;30.52;18.73;;;17.20;99.90;;;;;;5034322;28;20085;-31
2022/09/07 05:13:01;;;;;;;28.20;17.63;;;13.40;99.90;;;;;;5034276;28;20107;-32
2022/09/07 05:15:31;;;;;;;26.58;20.23;;;15.60;99.90;;;;;;5017267;28;20522;-32
2022/09/07 05:17:57;;;;;;;32.35;21.67;;;13.50;99.90;;;;;;5033037;28;20041;-31
2022/09/07 05:20:23;;;;;;;30.92;24.92;;;16.50;99.90;;;;;;5034478;28;20049;-32
2022/09/07 05:22:58;;;;;;;40.22;27.45;;;14.50;99.90;;;;;;5034640;28;20045;-31
2022/09/07 05:25:27;;;;;;;39.03;25.58;;;13.50;99.90;;;;;;5034441;28;20053;-31
2022/09/07 05:27:54;;;;;;;42.97;29.27;;;15.80;99.90;;;;;;5033368;28;20099;-32
2022/09/07 05:30:20;;;;;;;50.00;29.63;;;16.80;99.90;;;;;;5034004;28;20120;-32
2022/09/07 05:32:46;;;;;;;52.95;33.75;;;17.80;99.90;;;;;;5032759;28;20049;-32
2022/09/07 05:35:17;;;;;;;46.42;31.20;;;14.20;99.90;;;;;;5033191;28;20056;-32
2022/09/07 05:37:49;;;;;;;49.65;33.03;;;17.80;99.90;;;;;;5032565;28;20053;-32
2022/09/07 05:40:15;;;;;;;54.90;35.63;;;17.40;99.90;;;;;;5033704;28;20100;-32
2022/09/07 05:42:41;;;;;;;68.68;41.15;;;13.80;99.90;;;;;;5032376;28;20096;-32
2022/09/07 05:45:07;;;;;;;68.70;42.05;;;13.70;99.90;;;;;;5033766;28;20045;-32
2022/09/07 05:47:33;;;;;;;60.40;40.15;;;14.40;99.90;;;;;;5033798;28;20049;-32
2022/09/07 05:49:58;;;;;;;55.38;39.97;;;17.80;99.90;;;;;;5033780;28;20049;-32
2022/09/07 05:52:24;;;;;;;61.30;41.42;;;16.70;99.90;;;;;;5033978;28;20483;-32
2022/09/07 05:54:50;;;;;;;78.25;46.65;;;14.00;99.90;;;;;;5033648;28;20056;-32
2022/09/07 05:57:16;;;;;;;67.00;44.53;;;17.50;99.90;;;;;;5032651;28;20123;-33
2022/09/07 05:59:42;;;;;;;72.93;46.33;;;18.00;99.90;;;;;;5034179;28;20057;-33
2022/09/07 06:02:13;;;;;;;61.30;42.22;;;14.00;99.90;;;;;;5033620;28;20041;-32
2022/09/07 06:04:39;;;;;;;69.38;46.10;;;14.80;99.90;;;;;;5034121;28;20124;-32
2022/09/07 06:07:05;;;;;;;83.10;50.72;;;15.70;99.90;;;;;;5033841;28;20527;-32
2022/09/07 06:09:30;;;;;;;74.25;50.10;;;15.50;99.90;;;;;;5033085;28;20366;-32
2022/09/07 06:11:56;;;;;;;58.60;43.47;;;15.00;99.90;;;;;;5033490;28;20045;-32
2022/09/07 06:14:22;;;;;;;59.72;43.83;;;15.40;99.90;;;;;;5032346;28;20376;-32
2022/09/07 06:16:47;;;;;;;55.55;42.35;;;14.90;99.90;;;;;;5033170;28;20089;-32
2022/09/07 06:19:13;;;;;;;65.18;43.60;;;17.70;99.90;;;;;;5032770;28;20049;-33
2022/09/07 06:21:39;;;;;;;57.45;42.42;;;14.30;99.90;;;;;;5034002;28;20388;-32
2022/09/07 06:24:05;;;;;;;66.35;44.00;;;18.20;99.90;;;;;;5033629;28;20041;-33
2022/09/07 06:26:31;;;;;;;70.13;46.97;;;14.70;99.90;;;;;;5033399;28;20050;-33
2022/09/07 06:28:57;;;;;;;66.10;45.33;;;17.90;99.90;;;;;;5033401;28;20042;-32
2022/09/07 06:31:23;;;;;;;49.90;37.92;;;17.00;99.90;;;;;;5033883;28;20045;-33
2022/09/07 06:33:50;;;;;;;53.15;38.42;;;14.40;99.90;;;;;;5033862;28;20049;-33
2022/09/07 06:36:19;;;;;;;54.33;37.80;;;14.40;99.90;;;;;;5031911;28;20049;-34
2022/09/07 06:38:45;;;;;;;57.20;40.35;;;14.80;99.90;;;;;;5033314;28;20050;-33
2022/09/07 06:41:17;;;;;;;52.35;39.33;;;14.50;99.90;;;;;;5033270;28;20053;-33
2022/09/07 06:43:43;;;;;;;67.07;43.33;;;14.40;99.90;;;;;;5033634;28;20132;-32
2022/09/07 06:46:09;;;;;;;59.45;41.60;;;16.20;99.90;;;;;;5034516;28;20042;-32
2022/09/07 06:48:36;;;;;;;58.05;41.85;;;17.60;99.90;;;;;;5036997;28;20126;-33
2022/09/07 06:51:29;;;;;;;65.60;43.42;;;15.30;99.90;;;;;;5036016;28;20080;-32
2022/09/07 06:53:55;;;;;;;63.28;43.58;;;14.40;99.90;;;;;;5037281;28;20048;-32
2022/09/07 06:56:22;;;;;;;64.30;43.15;;;16.40;99.90;;;;;;5036889;28;20089;-32
2022/09/07 06:58:53;;;;;;;53.20;39.60;;;14.50;99.90;;;;;;5036890;28;20053;-32
2022/09/07 07:01:19;;;;;;;58.45;42.58;;;17.40;99.90;;;;;;5037670;28;20357;-32
2022/09/07 07:03:46;;;;;;;58.75;39.63;;;14.60;99.90;;;;;;5036920;28;20120;-32
2022/09/07 07:06:12;;;;;;;53.13;38.88;;;17.60;99.90;;;;;;5035464;28;20285;-32
2022/09/07 07:08:38;;;;;;;48.35;39.50;;;17.90;99.90;;;;;;5036644;28;20052;-33
2022/09/07 07:11:10;;;;;;;54.58;39.70;;;14.70;99.90;;;;;;5036183;28;20349;-33
2022/09/07 07:13:36;;;;;;;55.95;41.28;;;15.30;99.90;;;;;;5036853;28;20033;-32
2022/09/07 07:16:14;;;;;;;62.42;43.65;;;14.60;99.90;;;;;;5035336;28;20111;-32
2022/09/07 07:18:41;;;;;;;65.15;41.83;;;17.70;99.90;;;;;;5019593;28;20092;-32
2022/09/07 07:21:11;;;;;;;56.50;39.45;;;17.80;99.90;;;;;;5036427;28;20053;-33
2022/09/07 07:23:38;;;;;;;79.28;48.67;;;17.90;99.90;;;;;;5036400;28;20052;-31
2022/09/07 07:26:06;;;;;;;69.90;47.15;;;17.70;99.90;;;;;;5036325;28;20049;-32
2022/09/07 07:28:32;;;;;;;69.25;49.30;;;15.70;99.90;;;;;;5037067;28;20053;-32
2022/09/07 07:30:59;;;;;;;82.47;52.80;;;16.60;99.90;;;;;;5037092;28;20097;-32
2022/09/07 07:36:30;;;;;;;72.43;46.72;;;18.30;99.90;;;;;;5036166;28;20053;-31
2022/09/07 07:38:56;;;;;;;63.95;45.50;;;15.10;99.90;;;;;;5036645;28;20456;-32
2022/09/07 07:41:26;;;;;;;78.40;50.30;;;17.50;99.90;;;;;;5036032;28;20388;-32
2022/09/07 07:43:55;;;;;;;70.28;48.72;;;15.10;99.90;;;;;;5035836;28;20451;-32
2022/09/07 07:46:22;;;;;;;62.53;44.90;;;15.80;99.90;;;;;;5035773;28;20494;-32
2022/09/07 07:48:48;;;;;;;61.58;44.78;;;17.80;99.90;;;;;;5018160;28;20107;-31
2022/09/07 07:51:14;;;;;;;60.90;44.17;;;15.20;99.90;;;;;;5035851;28;20050;-32
2022/09/07 07:53:40;;;;;;;67.22;46.85;;;15.40;99.90;;;;;;5035819;28;20395;-32
2022/09/07 07:56:07;;;;;;;76.00;53.35;;;17.30;99.90;;;;;;5035719;28;20081;-31
2022/09/07 07:58:34;;;;;;;77.50;52.90;;;18.00;99.90;;;;;;5035465;28;20403;-31
2022/09/07 08:01:03;;;;;;;73.90;50.55;;;17.90;99.90;;;;;;5035678;28;20107;-31
2022/09/07 08:03:28;;;;;;;62.47;47.13;;;18.10;99.90;;;;;;5034559;28;20096;-31
2022/09/07 08:05:55;;;;;;;79.72;51.13;;;18.30;99.90;;;;;;5036387;28;20096;-31
2022/09/07 08:08:22;;;;;;;78.07;50.40;;;16.60;99.90;;;;;;5035165;28;20476;-32
2022/09/07 08:10:48;;;;;;;76.57;50.45;;;18.20;99.90;;;;;;5034571;28;20106;-30
2022/09/07 08:13:15;;;;;;;67.72;47.65;;;18.40;99.90;;;;;;5035967;28;20080;-31
2022/09/07 08:15:44;;;;;;;64.32;43.65;;;17.50;99.90;;;;;;5034701;28;20139;-30
2022/09/07 08:18:14;;;;;;;54.30;41.33;;;17.70;99.90;;;;;;5035907;28;20057;-30
2022/09/07 08:20:40;;;;;;;54.33;41.83;;;16.80;99.90;;;;;;5034469;28;20045;-30
2022/09/07 08:23:07;;;;;;;59.55;41.35;;;18.60;99.90;;;;;;5035118;28;20111;-30
2022/09/07 08:25:33;;;;;;;53.38;40.00;;;17.50;99.90;;;;;;5034219;28;20506;-30
2022/09/07 08:27:59;;;;;;;49.80;38.38;;;17.70;99.90;;;;;;5035157;28;20057;-30
2022/09/07 08:30:25;;;;;;;51.13;36.58;;;17.70;99.90;;;;;;5035388;28;20045;-30
2022/09/07 08:32:50;;;;;;;49.83;38.33;;;17.90;99.90;;;;;;5035060;28;20384;-29
2022/09/07 08:35:16;;;;;;;45.72;36.88;;;17.70;99.90;;;;;;5034976;28;20487;-28
2022/09/07 08:37:42;;;;;;;48.40;37.20;;;17.50;99.90;;;;;;5034398;28;20057;-28
2022/09/07 08:40:17;;;;;;;45.67;34.33;;;16.90;99.90;;;;;;5034299;28;20102;-28
2022/09/07 08:43:00;;;;;;;49.75;39.25;;;17.40;99.90;;;;;;5035407;28;20384;-28
2022/09/07 08:45:32;;;;;;;55.55;41.35;;;16.90;99.90;;;;;;5034184;28;20103;-28
2022/09/07 08:47:58;;;;;;;58.80;43.35;;;16.80;99.90;;;;;;5034828;28;20049;-29
2022/09/07 08:50:33;;;;;;;49.63;36.70;;;17.40;99.90;;;;;;5034693;28;20099;-28
2022/09/07 08:53:14;;;;;;;54.97;39.08;;;17.50;99.90;;;;;;5034736;28;20048;-28
2022/09/07 08:55:46;;;;;;;55.97;41.67;;;17.10;99.90;;;;;;5034572;28;20080;-28
2022/09/07 08:58:42;;;;;;;54.85;39.63;;;17.50;99.90;;;;;;5034921;28;20079;-28
2022/09/07 09:01:35;;;;;;;43.00;35.70;;;17.90;99.90;;;;;;5032481;28;20049;-28
2022/09/07 09:04:01;;;;;;;46.80;36.97;;;18.00;99.90;;;;;;5034928;28;20053;-28
2022/09/07 09:06:41;;;;;;;41.50;36.22;;;17.90;99.90;;;;;;5035226;28;20436;-28
2022/09/07 09:09:25;;;;;;;43.58;35.42;;;18.00;99.90;;;;;;5034908;28;20041;-29
2022/09/07 09:11:57;;;;;;;42.53;35.75;;;17.70;99.90;;;;;;5034390;28;20057;-28
2022/09/07 09:14:36;;;;;;;41.08;32.00;;;17.80;99.90;;;;;;5034288;28;20049;-28
2022/09/07 09:17:15;;;;;;;35.45;31.58;;;18.00;99.90;;;;;;5034852;28;20051;-28
2022/09/07 09:19:48;;;;;;;38.40;31.13;;;18.10;99.90;;;;;;5034242;28;20115;-28
2022/09/07 09:22:20;;;;;;;38.78;32.28;;;18.20;99.90;;;;;;5034172;28;20045;-28
2022/09/07 09:24:50;;;;;;;35.65;28.73;;;18.50;99.90;;;;;;5032619;28;20404;-27
2022/09/07 09:27:16;;;;;;;26.13;23.48;;;18.60;99.90;;;;;;5034048;28;20046;-27
2022/09/07 09:29:42;;;;;;;30.42;27.08;;;18.50;99.90;;;;;;5034059;28;20060;-27
2022/09/07 09:32:30;;;;;;;35.08;29.48;;;18.70;99.90;;;;;;5032798;28;20419;-27
2022/09/07 09:35:16;;;;;;;33.08;25.90;;;19.00;99.90;;;;;;5033006;28;20093;-27
2022/09/07 09:37:42;;;;;;;25.95;23.30;;;19.50;99.90;;;;;;5033075;28;20057;-27
2022/09/07 09:40:26;;;;;;;26.33;22.98;;;19.30;99.90;;;;;;5034198;28;20060;-27
2022/09/07 09:43:01;;;;;;;25.10;21.63;;;19.30;99.90;;;;;;5034115;28;20103;-28
2022/09/07 09:45:29;;;;;;;28.52;23.17;;;19.70;99.90;;;;;;5033441;28;20514;-27
2022/09/07 09:47:57;;;;;;;21.30;18.45;;;19.40;99.90;;;;;;5034600;28;20454;-27
2022/09/07 09:50:35;;;;;;;24.23;20.55;;;19.60;99.90;;;;;;5032788;28;20052;-26
2022/09/07 09:53:01;;;;;;;22.73;19.33;;;19.80;99.90;;;;;;5033639;28;20085;-26
2022/09/07 09:55:36;;;;;;;13.85;12.45;;;19.90;99.90;;;;;;5034505;28;20094;-26
2022/09/07 09:58:44;;;;;;;12.40;10.80;;;20.30;99.90;;;;;;5034269;28;20110;-26
2022/09/07 10:01:31;;;;;;;10.93;9.50;;;19.90;99.90;;;;;;5034301;28;20049;-25
2022/09/07 10:04:16;;;;;;;9.35;8.43;;;19.70;99.90;;;;;;5033868;28;20045;-25
2022/09/07 10:07:13;;;;;;;10.27;9.27;;;19.50;99.90;;;;;;5033662;28;20064;-25
2022/09/07 10:09:42;;;;;;;9.63;8.73;;;19.10;99.90;;;;;;5030294;28;20049;-25
2022/09/07 10:12:25;;;;;;;10.38;9.07;;;19.50;99.90;;;;;;5033173;28;20515;-25
2022/09/07 10:14:50;;;;;;;;;;;20.00;99.90;;;;;;5034023;28;20447;-25
2022/09/07 10:17:48;;;;;;;9.63;7.65;;;20.30;99.90;;;;;;5034054;28;19921;-25
2022/09/07 10:20:20;;;;;;;8.25;7.45;;;20.80;99.90;;;;;;5032867;28;20470;-25
2022/09/07 10:22:51;;;;;;;6.70;6.05;;;20.60;99.90;;;;;;5037486;28;20049;-25
2022/09/07 10:25:38;;;;;;;9.43;7.35;;;20.30;99.90;;;;;;5038182;28;20049;-25
2022/09/07 10:28:15;;;;;;;8.15;7.05;;;20.90;99.90;;;;;;5037726;28;20132;-25
2022/09/07 10:30:59;;;;;;;7.05;6.30;;;21.60;93.50;;;;;;5037421;28;20049;-24
2022/09/07 10:33:55;;;;;;;6.95;6.25;;;22.30;1.00;;;;;;5037364;28;20049;-24
2022/09/07 10:36:50;;;;;;;8.32;7.45;;;23.00;99.90;;;;;;5037090;28;20052;-24
2022/09/07 10:39:26;;;;;;;6.40;5.45;;;23.70;1.00;;;;;;5038016;28;20102;-24
2022/09/07 10:42:21;;;;;;;6.13;5.53;;;23.60;99.90;;;;;;5020152;28;20052;-24
2022/09/07 10:45:15;;;;;;;6.78;6.18;;;23.20;1.00;;;;;;5035977;28;20077;-24
2022/09/07 10:47:59;;;;;;;7.75;6.60;;;23.00;1.00;;;;;;5019576;28;20049;-24
2022/09/07 10:50:46;;;;;;;6.70;6.03;;;23.00;1.00;;;;;;5020432;28;20375;-24
2022/09/07 10:53:12;;;;;;;6.30;5.68;;;23.60;99.90;;;;;;5037583;28;20103;-24
2022/09/07 10:55:49;;;;;;;7.10;5.18;;;23.90;1.00;;;;;;5036776;28;20484;-24
2022/09/07 10:58:21;;;;;;;5.95;5.25;;;24.10;99.90;;;;;;5035714;28;20045;-24
2022/09/07 11:01:34;;;;;;;5.90;5.20;;;23.60;99.90;;;;;;5036886;28;20084;-24
2022/09/07 11:04:21;;;;;;;6.90;5.93;;;22.70;99.90;;;;;;5015217;28;20049;-24
2022/09/07 11:06:53;;;;;;;4.80;3.60;;;22.50;1.00;;;;;;5015481;28;20072;-24
2022/09/07 11:09:34;;;;;;;5.50;4.38;;;22.60;1.00;;;;;;5031130;28;20483;-24
2022/09/07 11:12:08;;;;;;;5.03;4.22;;;22.60;1.00;;;;;;5019754;28;20188;-24
2022/09/07 11:14:41;;;;;;;3.58;3.25;;;22.60;99.90;;;;;;5036609;28;20042;-24
2022/09/07 11:17:17;;;;;;;3.80;3.50;;;22.50;1.00;;;;;;5036568;28;20053;-24
2022/09/07 11:19:46;;;;;;;7.28;3.80;;;22.20;1.00;;;;;;5036531;28;20143;-24
2022/09/07 11:22:43;;;;;;;3.88;3.38;;;22.10;1.00;;;;;;5036422;28;20068;-24
2022/09/07 11:25:12;;;;;;;4.40;2.90;;;22.20;99.90;;;;;;5036675;28;20048;-24
2022/09/07 11:27:46;;;;;;;2.53;1.80;;;23.40;1.00;;;;;;5035404;28;20099;-24
2022/09/07 11:30:18;;;;;;;3.00;2.55;;;24.60;99.90;;;;;;5036325;28;20517;-24
2022/09/07 11:33:25;;;;;;;3.15;2.22;;;24.40;99.90;;;;;;5034947;28;20095;-24
2022/09/07 11:36:15;;;;;;;2.95;2.60;;;23.80;1.00;;;;;;5036165;28;20438;-24
2022/09/07 11:38:47;;;;;;;3.35;2.53;;;23.60;99.90;;;;;;5034754;28;20057;-24
2022/09/07 11:41:20;;;;;;;;;;;24.20;56.50;;;;;;5036532;28;20061;-24
2022/09/07 11:43:56;;;;;;;2.20;1.80;;;24.20;99.90;;;;;;5036212;28;19921;-25
2022/09/07 11:46:40;;;;;;;2.15;1.92;;;24.90;1.00;;;;;;5036303;28;20283;-25
2022/09/07 11:49:27;;;;;;;3.22;2.00;;;25.40;1.00;;;;;;5035967;28;20491;-25
2022/09/07 11:52:08;;;;;;;2.58;1.63;;;25.10;99.90;;;;;;5035944;28;20049;-25
2022/09/07 11:54:47;;;;;;;5.10;1.60;;;25.10;1.00;;;;;;5036433;28;20049;-25
2022/09/07 11:57:31;;;;;;;2.00;1.23;;;25.30;99.90;;;;;;5035796;28;20053;-25
2022/09/07 12:00:14;;;;;;;1.80;1.40;;;25.20;99.90;;;;;;5034783;28;20052;-25
2022/09/07 12:02:57;;;;;;;2.70;1.30;;;25.50;1.00;;;;;;5035723;28;20052;-25
2022/09/07 12:06:03;;;;;;;1.75;1.23;;;25.30;99.90;;;;;;5036421;28;20047;-25
2022/09/07 12:08:55;;;;;;;1.95;1.42;;;25.70;99.90;;;;;;5036357;28;20128;-25
2022/09/07 12:11:46;;;;;;;1.40;1.15;;;25.50;99.90;;;;;;5036143;28;20084;-25
2022/09/07 12:14:32;;;;;;;2.70;1.40;;;25.20;99.90;;;;;;5035448;28;20088;-25
2022/09/07 12:17:13;;;;;;;1.63;1.00;;;24.90;99.90;;;;;;5035615;28;20058;-25
2022/09/07 12:19:39;;;;;;;2.17;0.90;;;24.70;99.90;;;;;;5035406;28;20132;-25
2022/09/07 12:22:18;;;;;;;2.72;1.33;;;24.50;1.00;;;;;;5018127;28;20452;-25
2022/09/07 12:24:45;;;;;;;2.42;0.80;;;24.50;99.90;;;;;;5034121;28;20124;-25
2022/09/07 12:27:31;;;;;;;1.88;0.82;;;24.80;1.00;;;;;;5035212;28;20053;-25
2022/09/07 12:29:57;;;;;;;3.08;1.02;;;25.80;99.90;;;;;;5035368;28;20132;-25
2022/09/07 12:32:50;;;;;;;1.63;1.10;;;26.10;99.90;;;;;;5035111;28;20103;-25
2022/09/07 12:35:40;;;;;;;2.85;0.90;;;26.10;99.90;;;;;;5035121;28;20084;-25
2022/09/07 12:38:12;;;;;;;3.28;1.20;;;26.50;99.90;;;;;;5034796;28;20057;-26
2022/09/07 12:40:42;;;;;;;1.75;1.17;;;26.60;84.40;;;;;;5034726;28;20510;-25
2022/09/07 12:43:14;;;;;;;3.97;1.40;;;26.40;99.90;;;;;;5034697;28;20092;-25
2022/09/07 12:45:40;;;;;;;1.90;1.00;;;26.30;99.90;;;;;;5034573;28;20081;-25
2022/09/07 12:48:12;;;;;;;2.92;1.42;;;26.30;99.90;;;;;;5034453;28;20049;-25
2022/09/07 12:50:57;;;;;;;1.88;1.13;;;26.40;99.90;;;;;;5034812;28;20049;-25
2022/09/07 12:53:29;;;;;;;1.90;1.00;;;26.40;12.40;;;;;;5035041;28;20406;-25
2022/09/07 12:56:04;;;;;;;1.70;0.82;;;26.40;99.90;;;;;;5033848;28;20041;-25
2022/09/07 12:58:51;;;;;;;1.92;0.93;;;26.60;1.00;;;;;;5035533;28;20115;-26
2022/09/07 13:01:56;;;;;;;2.78;1.40;;;26.50;1.00;;;;;;5034543;28;20111;-26
2022/09/07 13:04:54;;;;;;;2.00;1.17;;;26.20;1.00;;;;;;5034663;28;20049;-26
2022/09/07 13:07:48;;;;;;;2.90;1.05;;;26.20;81.10;;;;;;5026970;28;20187;-25